Time;durP1;ratioP1;P1;durP2;ratioP2;P2;SDS_P1;SDS_P2;PMS_P1;PMS_P2;Temp;Humidity;BMP_temperature;BMP_pressure;BME280_temperature;BME280_humidity;BME280_pressure;Samples;Min_cycle;Max_cycle;Signal;HPM_P1;HPM_P2
2022/11/21 00:01:01;;;;;;;0.30;0.30;;;5.10;99.90;;;;;;5086650;28;20198;-80
2022/11/21 00:03:29;;;;;;;0.30;0.20;;;5.20;99.90;;;;;;5083006;28;20222;-80
2022/11/21 00:05:56;;;;;;;0.43;0.25;;;5.00;99.90;;;;;;5088133;28;20198;-80
2022/11/21 00:08:23;;;;;;;0.30;0.25;;;5.00;99.90;;;;;;5074251;28;20278;-80
2022/11/21 00:10:49;;;;;;;0.30;0.28;;;5.00;99.90;;;;;;5082682;28;20195;-81
2022/11/21 00:13:18;;;;;;;0.30;0.20;;;5.10;99.90;;;;;;5068629;28;20305;-81
2022/11/21 00:15:45;;;;;;;0.35;0.35;;;5.00;99.90;;;;;;5081550;28;20195;-81
2022/11/21 00:18:12;;;;;;;0.30;0.20;;;5.00;99.90;;;;;;5087529;28;20205;-82
2022/11/21 00:20:41;;;;;;;2.20;1.10;;;5.00;99.90;;;;;;5088921;28;20560;-82
2022/11/21 00:23:08;;;;;;;0.30;0.20;;;4.90;99.90;;;;;;5087589;28;20215;-81
2022/11/21 00:25:36;;;;;;;1.85;0.80;;;5.00;99.90;;;;;;5088785;28;20206;-81
2022/11/21 00:28:03;;;;;;;0.40;0.30;;;5.10;99.90;;;;;;5068596;28;20199;-80
2022/11/21 00:30:30;;;;;;;0.30;0.20;;;5.10;99.90;;;;;;5076838;28;20198;-81
2022/11/21 00:32:58;;;;;;;0.30;0.20;;;5.60;99.90;;;;;;5087543;28;20295;-81
2022/11/21 00:35:25;;;;;;;0.30;0.20;;;5.00;99.90;;;;;;5086232;28;20211;-80
2022/11/21 00:37:53;;;;;;;0.30;0.20;;;5.00;99.90;;;;;;5086718;28;20202;-81
2022/11/21 00:40:20;;;;;;;0.40;0.30;;;4.90;99.90;;;;;;5068048;28;20203;-80
2022/11/21 00:42:47;;;;;;;0.30;0.20;;;4.80;99.90;;;;;;5081164;28;20202;-81
2022/11/21 00:45:14;;;;;;;0.30;0.20;;;4.80;99.90;;;;;;5086343;28;20199;-81
2022/11/21 00:47:41;;;;;;;0.40;0.20;;;4.60;99.90;;;;;;5083039;28;20216;-80
2022/11/21 00:50:09;;;;;;;0.30;0.20;;;4.70;99.90;;;;;;5068213;28;20207;-81
2022/11/21 00:52:36;;;;;;;0.60;0.38;;;4.70;99.90;;;;;;5077091;28;20198;-81
2022/11/21 00:55:04;;;;;;;0.30;0.20;;;4.50;99.90;;;;;;5087985;28;20671;-80
2022/11/21 00:57:31;;;;;;;0.50;0.30;;;4.60;99.90;;;;;;5076339;28;20209;-80
2022/11/21 00:59:58;;;;;;;0.30;0.30;;;4.50;99.90;;;;;;5074056;28;20207;-81
2022/11/21 01:02:24;;;;;;;0.30;0.20;;;4.60;99.90;;;;;;5076518;28;20232;-80
2022/11/21 01:04:51;;;;;;;0.85;0.75;;;4.50;99.90;;;;;;5087157;28;20232;-80
2022/11/21 01:07:18;;;;;;;0.40;0.20;;;4.50;99.90;;;;;;5085894;28;20194;-80
2022/11/21 01:09:45;;;;;;;0.30;0.20;;;4.50;99.90;;;;;;5082712;28;20199;-80
2022/11/21 01:12:13;;;;;;;0.40;0.30;;;4.50;99.90;;;;;;5067881;28;20199;-80
2022/11/21 01:14:40;;;;;;;0.30;0.20;;;4.50;99.90;;;;;;5087436;28;20212;-80
2022/11/21 01:17:06;;;;;;;0.30;0.20;;;4.50;99.90;;;;;;5082498;28;20286;-80
2022/11/21 01:19:33;;;;;;;0.30;0.20;;;4.50;99.90;;;;;;5087952;28;20285;-80
2022/11/21 01:22:00;;;;;;;0.30;0.30;;;4.60;99.90;;;;;;5076886;28;20206;-80
2022/11/21 01:24:27;;;;;;;0.30;0.20;;;4.50;99.90;;;;;;5082775;28;20233;-80
2022/11/21 01:26:54;;;;;;;0.30;0.20;;;4.60;99.90;;;;;;5076917;28;20195;-82
2022/11/21 01:29:22;;;;;;;0.30;0.30;;;4.70;99.90;;;;;;5067948;28;20207;-81
2022/11/21 01:31:49;;;;;;;0.30;0.20;;;4.60;99.90;;;;;;5086101;28;20285;-80
2022/11/21 01:34:17;;;;;;;0.60;0.30;;;4.60;99.90;;;;;;5076474;28;20205;-80
2022/11/21 01:36:44;;;;;;;0.30;0.20;;;4.50;99.90;;;;;;5086299;28;20940;-81
2022/11/21 01:39:12;;;;;;;0.85;0.85;;;4.60;99.90;;;;;;5076798;28;20199;-81
2022/11/21 01:41:40;;;;;;;0.40;0.30;;;4.50;99.90;;;;;;5070565;28;20218;-81
2022/11/21 01:44:16;;;;;;;0.30;0.28;;;4.50;99.90;;;;;;5088003;28;20229;-81
2022/11/21 01:46:44;;;;;;;0.40;0.40;;;4.50;99.90;;;;;;5085218;28;20745;-81
2022/11/21 01:49:16;;;;;;;0.50;0.50;;;4.20;99.90;;;;;;5069723;28;20565;-80
2022/11/21 01:51:47;;;;;;;0.30;0.20;;;4.30;99.90;;;;;;5071759;28;20721;-81
2022/11/21 01:54:18;;;;;;;0.40;0.20;;;4.30;99.90;;;;;;5087351;28;20209;-80
2022/11/21 01:56:49;;;;;;;0.30;0.20;;;4.30;99.90;;;;;;5080479;28;20278;-81
2022/11/21 01:59:20;;;;;;;0.30;0.20;;;4.30;99.90;;;;;;5073320;28;20197;-82
2022/11/21 02:01:51;;;;;;;0.30;0.20;;;4.30;99.90;;;;;;5081729;28;20286;-83
2022/11/21 02:04:19;;;;;;;0.30;0.20;;;4.40;99.90;;;;;;5084947;28;20217;-82
2022/11/21 02:06:46;;;;;;;1.25;0.38;;;4.20;99.90;;;;;;5086828;28;20289;-83
2022/11/21 02:09:13;;;;;;;0.30;0.20;;;;;;;;;;5082747;28;20195;-83
2022/11/21 02:11:45;;;;;;;0.35;0.35;;;4.30;99.90;;;;;;5074356;28;20187;-83
2022/11/21 02:14:12;;;;;;;0.30;0.20;;;4.40;99.90;;;;;;5083571;28;20209;-82
2022/11/21 02:16:39;;;;;;;0.30;0.20;;;4.50;99.90;;;;;;5071259;28;20195;-82
2022/11/21 02:19:15;;;;;;;0.30;0.25;;;4.30;99.90;;;;;;5086223;28;20653;-82
2022/11/21 02:21:48;;;;;;;0.30;0.20;;;4.30;99.90;;;;;;5078688;28;20198;-82
2022/11/21 02:24:22;;;;;;;0.30;0.30;;;4.30;99.90;;;;;;5087329;28;20230;-82
2022/11/21 02:26:50;;;;;;;0.40;0.30;;;4.30;99.90;;;;;;5073854;28;20203;-82
2022/11/21 02:29:18;;;;;;;0.30;0.20;;;4.20;99.90;;;;;;5068888;28;20264;-83
2022/11/21 02:31:45;;;;;;;0.30;0.20;;;4.00;99.90;;;;;;5082252;28;20702;-82
2022/11/21 02:34:12;;;;;;;0.60;0.35;;;4.80;99.90;;;;;;5072757;28;20195;-82
2022/11/21 02:36:43;;;;;;;0.30;0.20;;;4.20;99.90;;;;;;5082691;28;20644;-83
2022/11/21 02:39:15;;;;;;;0.30;0.20;;;4.10;99.90;;;;;;5070849;28;20192;-82
2022/11/21 02:41:51;;;;;;;0.30;0.20;;;4.00;99.90;;;;;;5077918;28;20222;-82
2022/11/21 02:44:23;;;;;;;0.30;0.20;;;4.00;99.90;;;;;;5082248;28;20227;-82
2022/11/21 02:46:51;;;;;;;0.30;0.20;;;4.00;99.90;;;;;;5070349;28;20837;-82
2022/11/21 02:49:28;;;;;;;0.30;0.20;;;4.00;99.90;;;;;;5073917;28;20217;-82
2022/11/21 02:51:55;;;;;;;0.40;0.40;;;4.60;99.90;;;;;;5088976;28;20202;-83
2022/11/21 02:54:22;;;;;;;0.30;0.20;;;3.90;99.90;;;;;;5089384;28;20195;-84
2022/11/21 02:56:51;;;;;;;0.30;0.20;;;4.00;99.90;;;;;;5071046;28;20200;-82
2022/11/21 02:59:18;;;;;;;0.50;0.50;;;3.90;99.90;;;;;;5076980;28;20195;-82
2022/11/21 03:01:45;;;;;;;0.30;0.20;;;3.90;99.90;;;;;;5089691;28;20205;-82
2022/11/21 03:04:12;;;;;;;0.50;0.45;;;4.00;99.90;;;;;;5089590;28;20222;-82
2022/11/21 03:06:39;;;;;;;0.38;0.32;;;4.00;99.90;;;;;;5071944;28;20281;-83
2022/11/21 03:09:06;;;;;;;0.30;0.20;;;3.90;99.90;;;;;;5073643;28;20332;-83
2022/11/21 03:11:33;;;;;;;0.30;0.20;;;3.90;99.90;;;;;;5089073;28;20191;-82
2022/11/21 03:14:01;;;;;;;0.30;0.25;;;4.60;99.90;;;;;;5090388;28;20223;-82
2022/11/21 03:16:28;;;;;;;0.30;0.20;;;4.00;99.90;;;;;;5073571;28;20205;-82
2022/11/21 03:18:56;;;;;;;0.30;0.20;;;4.00;99.90;;;;;;5090051;28;20539;-82
2022/11/21 03:21:23;;;;;;;0.30;0.25;;;3.90;99.90;;;;;;5073379;28;20849;-82
2022/11/21 03:23:50;;;;;;;0.30;0.20;;;3.70;99.90;;;;;;5085447;28;20202;-82
2022/11/21 03:26:17;;;;;;;0.30;0.20;;;3.90;99.90;;;;;;5075735;28;20191;-83
2022/11/21 03:28:44;;;;;;;0.30;0.20;;;3.90;99.90;;;;;;5069812;28;20290;-83
2022/11/21 03:31:12;;;;;;;0.30;0.30;;;3.70;99.90;;;;;;5081600;28;20224;-81
2022/11/21 03:33:40;;;;;;;0.30;0.20;;;3.80;99.90;;;;;;5072769;28;20264;-82
2022/11/21 03:36:07;;;;;;;0.52;0.52;;;3.90;99.90;;;;;;5087718;28;20187;-82
2022/11/21 03:38:34;;;;;;;0.30;0.20;;;3.90;99.90;;;;;;5077946;28;21096;-81
2022/11/21 03:41:05;;;;;;;1.00;1.00;;;4.00;99.90;;;;;;5088009;28;20793;-81
2022/11/21 03:43:52;;;;;;;0.30;0.20;;;4.50;99.90;;;;;;5069351;28;20192;-81
2022/11/21 03:46:20;;;;;;;0.30;0.20;;;4.10;99.90;;;;;;5086603;28;20198;-81
2022/11/21 03:48:48;;;;;;;1.05;0.40;;;4.00;99.90;;;;;;5088969;28;20203;-81
2022/11/21 03:51:15;;;;;;;0.40;0.30;;;4.10;99.90;;;;;;5087241;28;20210;-81
2022/11/21 03:53:42;;;;;;;0.30;0.20;;;4.20;99.90;;;;;;5077833;28;20677;-81
2022/11/21 03:56:09;;;;;;;0.30;0.20;;;4.20;99.90;;;;;;5074295;28;20230;-81
2022/11/21 03:58:36;;;;;;;0.30;0.20;;;;;;;;;;5071615;28;20191;-83
2022/11/21 04:01:04;;;;;;;0.30;0.30;;;4.30;99.90;;;;;;5088893;28;20672;-82
2022/11/21 04:03:32;;;;;;;0.30;0.20;;;4.50;99.90;;;;;;5077225;28;20273;-82
2022/11/21 04:05:59;;;;;;;1.55;0.60;;;4.40;99.90;;;;;;5074291;28;20230;-81
2022/11/21 04:08:26;;;;;;;0.32;0.32;;;4.40;99.90;;;;;;5077483;28;20286;-81
2022/11/21 04:10:54;;;;;;;0.30;0.20;;;4.60;99.90;;;;;;5085722;28;20203;-81
2022/11/21 04:13:22;;;;;;;0.55;0.30;;;4.40;99.90;;;;;;5088798;28;20217;-82
2022/11/21 04:15:48;;;;;;;0.45;0.45;;;4.50;99.90;;;;;;5070520;28;20214;-82
2022/11/21 04:18:15;;;;;;;0.43;0.43;;;4.60;99.90;;;;;;5085508;28;20214;-82
2022/11/21 04:20:44;;;;;;;0.30;0.25;;;5.40;99.90;;;;;;5088762;28;20187;-82
2022/11/21 04:23:11;;;;;;;0.63;0.35;;;4.60;99.90;;;;;;5087426;28;20201;-82
2022/11/21 04:25:37;;;;;;;0.30;0.20;;;4.70;99.90;;;;;;5089301;28;20236;-82
2022/11/21 04:28:05;;;;;;;0.30;0.20;;;4.70;99.90;;;;;;5072835;28;20226;-83
2022/11/21 04:30:33;;;;;;;0.30;0.20;;;4.60;99.90;;;;;;5067919;28;20286;-81
2022/11/21 04:33:00;;;;;;;0.40;0.30;;;4.70;99.90;;;;;;5082284;28;20202;-82
2022/11/21 04:35:27;;;;;;;0.95;0.95;;;4.60;99.90;;;;;;5082559;28;20194;-84
2022/11/21 04:37:56;;;;;;;0.52;0.30;;;4.60;99.90;;;;;;5083175;28;20205;-82
2022/11/21 04:40:23;;;;;;;0.30;0.20;;;4.40;99.90;;;;;;5068097;28;20290;-82
2022/11/21 04:42:49;;;;;;;0.30;0.20;;;4.50;99.90;;;;;;5082418;28;20273;-82
2022/11/21 04:45:17;;;;;;;0.50;0.43;;;4.60;99.90;;;;;;5070940;28;20250;-82
2022/11/21 04:47:46;;;;;;;0.30;0.20;;;4.60;99.90;;;;;;5069900;28;20192;-82
2022/11/21 04:50:18;;;;;;;0.30;0.20;;;4.60;99.90;;;;;;5088422;28;20722;-81
2022/11/21 04:52:50;;;;;;;0.52;0.45;;;4.30;99.90;;;;;;5076174;28;20215;-82
2022/11/21 04:55:18;;;;;;;0.30;0.20;;;4.50;99.90;;;;;;5088030;28;20202;-82
2022/11/21 04:57:46;;;;;;;0.30;0.20;;;;;;;;;;5087137;28;20191;-82
2022/11/21 05:00:14;;;;;;;0.30;0.30;;;4.80;99.90;;;;;;5081786;28;20191;-82
2022/11/21 05:02:41;;;;;;;0.50;0.50;;;4.80;99.90;;;;;;5075281;28;20211;-81
2022/11/21 05:05:08;;;;;;;0.50;0.50;;;4.80;99.90;;;;;;5085915;28;20301;-81
2022/11/21 05:07:35;;;;;;;0.85;0.45;;;4.70;99.90;;;;;;5078788;28;20251;-82
2022/11/21 05:10:02;;;;;;;0.30;0.20;;;4.70;99.90;;;;;;5087159;28;20198;-82
2022/11/21 05:15:15;;;;;;;0.40;0.20;;;4.70;99.90;;;;;;5075859;28;20202;-82
2022/11/21 05:17:41;;;;;;;0.47;0.28;;;4.60;99.90;;;;;;5080754;28;20281;-82
2022/11/21 05:20:10;;;;;;;0.40;0.30;;;4.30;99.90;;;;;;5087254;28;20286;-82
2022/11/21 05:22:36;;;;;;;0.32;0.32;;;4.60;99.90;;;;;;5085522;28;20677;-81
2022/11/21 05:25:05;;;;;;;0.30;0.30;;;4.50;99.90;;;;;;5083172;28;20249;-82
2022/11/21 05:27:33;;;;;;;0.40;0.20;;;4.30;99.90;;;;;;5078158;28;20263;-83
2022/11/21 05:30:00;;;;;;;0.82;0.60;;;4.40;99.90;;;;;;5067618;28;20729;-82
2022/11/21 05:32:27;;;;;;;0.40;0.30;;;4.40;99.90;;;;;;5077775;28;20560;-82
2022/11/21 05:34:53;;;;;;;0.30;0.20;;;4.50;99.90;;;;;;5084752;28;20193;-82
2022/11/21 05:37:21;;;;;;;0.80;0.38;;;4.50;99.90;;;;;;5087685;28;20234;-82
2022/11/21 05:39:48;;;;;;;0.30;0.30;;;4.60;99.90;;;;;;5082481;28;20612;-82
2022/11/21 05:43:44;;;;;;;0.50;0.40;;;4.60;99.90;;;;;;5078178;28;20191;-82
2022/11/21 05:45:07;;;;;;;0.30;0.20;;;4.60;99.90;;;;;;5077161;28;20226;-83
2022/11/21 05:47:34;;;;;;;0.40;0.40;;;4.50;99.90;;;;;;5077456;28;20835;-83
2022/11/21 05:50:01;;;;;;;0.30;0.20;;;4.70;99.90;;;;;;5087114;28;20285;-82
2022/11/21 05:52:28;;;;;;;0.68;0.45;;;4.50;99.90;;;;;;5086067;28;20204;-83
2022/11/21 05:54:55;;;;;;;0.60;0.52;;;4.50;99.90;;;;;;5105375;28;20297;-82
2022/11/21 05:57:22;;;;;;;0.40;0.30;;;4.50;99.90;;;;;;5086897;28;20297;-82
2022/11/21 05:59:49;;;;;;;0.50;0.40;;;;;;;;;;5077027;28;20254;-82
2022/11/21 06:05:13;;;;;;;0.30;0.20;;;4.60;99.90;;;;;;5003606;28;20654;-82
2022/11/21 06:07:40;;;;;;;0.40;0.40;;;4.70;99.90;;;;;;5063842;28;20213;-82
2022/11/21 06:10:07;;;;;;;0.55;0.50;;;4.70;99.90;;;;;;5074691;28;20196;-82
2022/11/21 06:12:34;;;;;;;1.52;0.52;;;4.80;99.90;;;;;;5083645;28;20198;-82
2022/11/21 06:15:01;;;;;;;0.30;0.20;;;4.60;99.90;;;;;;5073564;28;20211;-82
2022/11/21 06:17:29;;;;;;;0.30;0.22;;;5.90;99.90;;;;;;5081770;28;20656;-83
2022/11/21 06:19:56;;;;;;;0.30;0.20;;;4.80;99.90;;;;;;5087245;28;20195;-82
2022/11/21 06:22:22;;;;;;;0.50;0.40;;;4.90;99.90;;;;;;5083240;28;20290;-82
2022/11/21 06:24:49;;;;;;;0.70;0.70;;;4.90;99.90;;;;;;5074113;28;20250;-82
2022/11/21 06:27:16;;;;;;;0.40;0.30;;;4.90;99.90;;;;;;5070912;28;20302;-82
2022/11/21 06:29:43;;;;;;;0.55;0.47;;;4.90;99.90;;;;;;5071768;28;20226;-82
2022/11/21 06:32:10;;;;;;;1.15;0.70;;;4.90;99.90;;;;;;5070672;28;20199;-82
2022/11/21 06:34:38;;;;;;;0.40;0.30;;;4.90;99.90;;;;;;5083359;28;20210;-82
2022/11/21 06:37:05;;;;;;;0.40;0.40;;;5.00;99.90;;;;;;5088817;28;20429;-82
2022/11/21 06:39:32;;;;;;;5.45;0.75;;;5.20;99.90;;;;;;5072939;28;20231;-84
2022/11/21 06:41:59;;;;;;;0.30;0.20;;;4.90;99.90;;;;;;5086450;28;20293;-81
2022/11/21 06:44:25;;;;;;;1.23;0.90;;;4.90;99.90;;;;;;5088852;28;20788;-81
2022/11/21 06:46:52;;;;;;;0.30;0.20;;;4.90;99.90;;;;;;5090573;28;20254;-81
2022/11/21 06:49:20;;;;;;;0.40;0.40;;;4.90;99.90;;;;;;5088587;28;20194;-81
2022/11/21 06:51:49;;;;;;;0.30;0.20;;;4.90;99.90;;;;;;5087358;28;20201;-82
2022/11/21 06:54:16;;;;;;;0.50;0.50;;;4.80;99.90;;;;;;5078708;28;20601;-82
2022/11/21 06:56:43;;;;;;;0.68;0.60;;;4.80;99.90;;;;;;5088452;28;20284;-83
2022/11/21 06:59:10;;;;;;;0.95;0.60;;;5.20;99.90;;;;;;5087761;28;20194;-83
2022/11/21 07:01:37;;;;;;;0.40;0.32;;;4.80;99.90;;;;;;5074043;28;20291;-82
2022/11/21 07:04:04;;;;;;;1.42;0.40;;;4.80;99.90;;;;;;5082327;28;20235;-82
2022/11/21 07:06:31;;;;;;;0.60;0.40;;;4.50;99.90;;;;;;5068665;28;20303;-83
2022/11/21 07:08:59;;;;;;;0.40;0.40;;;5.00;99.90;;;;;;5087292;28;20195;-82
2022/11/21 07:11:26;;;;;;;0.55;0.22;;;4.50;99.90;;;;;;5073359;28;20192;-83
2022/11/21 07:13:51;;;;;;;0.60;0.30;;;4.50;99.90;;;;;;5070732;28;20195;-83
2022/11/21 07:16:18;;;;;;;0.37;0.30;;;4.40;99.90;;;;;;5076280;28;20205;-82
2022/11/21 07:18:45;;;;;;;0.30;0.20;;;4.40;99.90;;;;;;5079483;28;20665;-82
2022/11/21 07:21:12;;;;;;;0.68;0.63;;;4.40;99.90;;;;;;5079319;28;20226;-82
2022/11/21 07:23:39;;;;;;;0.60;0.32;;;4.40;99.90;;;;;;5070483;28;20290;-82
2022/11/21 07:26:10;;;;;;;0.75;0.50;;;4.30;99.90;;;;;;5069262;28;20227;-83
2022/11/21 07:28:36;;;;;;;0.50;0.50;;;4.40;99.90;;;;;;5080952;28;20684;-83
2022/11/21 07:31:03;;;;;;;0.40;0.32;;;4.50;99.90;;;;;;5069508;28;20629;-82
2022/11/21 07:33:30;;;;;;;0.63;0.60;;;4.50;99.90;;;;;;5085150;28;20218;-83
2022/11/21 07:35:58;;;;;;;0.50;0.50;;;4.50;99.90;;;;;;5076435;28;20282;-83
2022/11/21 07:38:25;;;;;;;0.52;0.52;;;4.50;99.90;;;;;;5068408;28;20696;-82
2022/11/21 07:40:53;;;;;;;1.33;1.23;;;5.40;99.90;;;;;;5076446;28;20631;-83
2022/11/21 07:43:21;;;;;;;1.00;1.00;;;4.60;99.90;;;;;;5087405;28;20585;-83
2022/11/21 07:45:48;;;;;;;0.40;0.40;;;4.70;99.90;;;;;;5080715;28;20314;-82
2022/11/21 07:48:14;;;;;;;0.70;0.50;;;4.60;99.90;;;;;;5076786;28;20263;-82
2022/11/21 07:50:41;;;;;;;0.30;0.20;;;4.70;99.90;;;;;;5087177;28;20800;-82
2022/11/21 07:53:10;;;;;;;1.20;0.75;;;6.00;99.90;;;;;;5070621;28;20230;-83
2022/11/21 07:55:37;;;;;;;0.30;0.30;;;4.70;99.90;;;;;;5084628;28;20210;-82
2022/11/21 07:58:06;;;;;;;4.20;1.08;;;4.80;99.90;;;;;;5084210;28;20322;-82
2022/11/21 08:00:36;;;;;;;0.90;0.88;;;4.70;99.90;;;;;;5079952;28;20257;-83
2022/11/21 08:03:04;;;;;;;1.10;0.80;;;4.80;99.90;;;;;;5076028;28;20289;-83
2022/11/21 08:05:31;;;;;;;1.00;0.82;;;4.70;99.90;;;;;;5076260;28;20246;-82
2022/11/21 08:07:57;;;;;;;1.55;1.42;;;4.70;99.90;;;;;;5081197;28;20203;-82
2022/11/21 08:10:24;;;;;;;1.10;0.70;;;4.90;99.90;;;;;;5087287;28;20275;-81
2022/11/21 08:12:51;;;;;;;0.90;0.85;;;5.40;99.90;;;;;;5069062;28;20278;-82
2022/11/21 08:15:18;;;;;;;0.95;0.95;;;4.90;99.90;;;;;;5067896;28;20236;-83
2022/11/21 08:17:46;;;;;;;0.50;0.50;;;4.90;99.90;;;;;;5080798;28;20280;-81
2022/11/21 08:20:14;;;;;;;0.70;0.70;;;5.50;99.90;;;;;;5086805;28;20195;-82
2022/11/21 08:22:42;;;;;;;1.13;0.70;;;5.00;99.90;;;;;;5085161;28;20190;-81
2022/11/21 08:25:10;;;;;;;0.82;0.82;;;5.20;99.90;;;;;;5075220;28;20616;-82
2022/11/21 08:27:38;;;;;;;0.60;0.35;;;4.90;99.90;;;;;;5078151;28;20192;-82
2022/11/21 08:30:07;;;;;;;0.40;0.40;;;5.10;99.90;;;;;;5076254;28;20195;-82
2022/11/21 08:32:34;;;;;;;0.50;0.50;;;5.20;99.90;;;;;;5080517;28;20265;-81
2022/11/21 08:35:02;;;;;;;0.60;0.60;;;5.20;99.90;;;;;;5074469;28;20297;-82
2022/11/21 08:37:29;;;;;;;0.68;0.43;;;5.30;99.90;;;;;;5073914;28;20424;-82
2022/11/21 08:39:59;;;;;;;1.17;0.70;;;5.30;99.90;;;;;;5087958;28;20207;-82
2022/11/21 08:42:26;;;;;;;0.70;0.60;;;5.40;99.90;;;;;;5073782;28;20191;-83
2022/11/21 08:44:53;;;;;;;0.60;0.60;;;5.50;99.90;;;;;;5085310;28;20675;-82
2022/11/21 08:47:20;;;;;;;0.40;0.40;;;6.00;99.90;;;;;;5086996;28;20729;-82
2022/11/21 08:49:47;;;;;;;1.35;1.25;;;5.60;99.90;;;;;;5084869;28;20291;-82
2022/11/21 08:52:16;;;;;;;0.60;0.57;;;5.70;99.90;;;;;;5078392;28;20741;-82
2022/11/21 08:54:44;;;;;;;0.30;0.28;;;5.80;99.90;;;;;;5086210;28;20206;-82
2022/11/21 08:57:11;;;;;;;1.02;0.63;;;5.80;99.90;;;;;;5080260;28;20556;-82
2022/11/21 08:59:37;;;;;;;0.40;0.35;;;6.20;99.90;;;;;;5076738;28;20195;-82
2022/11/21 09:02:04;;;;;;;0.43;0.43;;;6.00;99.90;;;;;;5080589;28;20227;-82
2022/11/21 09:04:31;;;;;;;0.75;0.70;;;6.00;99.90;;;;;;5077541;28;20286;-82
2022/11/21 09:06:58;;;;;;;0.50;0.47;;;6.00;99.90;;;;;;5075068;28;20219;-83
2022/11/21 09:09:26;;;;;;;1.00;1.00;;;6.00;99.90;;;;;;5083258;28;20225;-82
2022/11/21 09:11:53;;;;;;;1.88;0.77;;;6.20;99.90;;;;;;5084494;28;20202;-82
2022/11/21 09:19:49;;;;;;;0.40;0.30;;;6.30;99.90;;;;;;5073169;28;20213;-83
2022/11/21 09:22:16;;;;;;;2.25;1.42;;;6.10;99.90;;;;;;5073067;28;20845;-82
2022/11/21 09:24:44;;;;;;;0.85;0.85;;;6.20;99.90;;;;;;5077413;28;20292;-82
2022/11/21 09:27:11;;;;;;;0.45;0.45;;;6.30;99.90;;;;;;5080010;28;20310;-81
2022/11/21 09:29:37;;;;;;;0.55;0.32;;;6.40;99.90;;;;;;5074455;28;20201;-82
2022/11/21 09:32:05;;;;;;;0.87;0.80;;;6.30;99.90;;;;;;5069928;28;20985;-82
2022/11/21 09:34:31;;;;;;;2.25;0.80;;;6.30;99.90;;;;;;5067663;28;20732;-84
2022/11/21 09:36:58;;;;;;;0.70;0.57;;;6.30;99.90;;;;;;5067407;28;20199;-83
2022/11/21 09:39:25;;;;;;;0.30;0.30;;;6.30;99.90;;;;;;5086373;28;20636;-81
2022/11/21 09:42:08;;;;;;;0.50;0.50;;;6.30;99.90;;;;;;5076753;28;20282;-81
2022/11/21 09:44:58;;;;;;;0.30;0.20;;;6.30;99.90;;;;;;5082122;28;20834;-81
2022/11/21 09:47:28;;;;;;;0.45;0.30;;;6.30;99.90;;;;;;5078199;28;20659;-82
2022/11/21 09:49:59;;;;;;;3.20;0.88;;;6.30;99.90;;;;;;5082896;28;20274;-82
2022/11/21 09:52:31;;;;;;;0.30;0.20;;;6.50;99.90;;;;;;5079583;28;20286;-81
2022/11/21 09:55:03;;;;;;;0.45;0.28;;;6.50;99.90;;;;;;5084272;28;20206;-81
2022/11/21 09:57:34;;;;;;;1.95;0.70;;;6.40;99.90;;;;;;5081158;28;20718;-82
2022/11/21 10:00:02;;;;;;;0.50;0.40;;;6.50;99.90;;;;;;5082607;28;20245;-81
2022/11/21 10:02:29;;;;;;;0.40;0.35;;;6.40;99.90;;;;;;5078652;28;20234;-81
2022/11/21 10:04:59;;;;;;;0.52;0.40;;;6.30;99.90;;;;;;5080770;28;20278;-81
2022/11/21 10:07:30;;;;;;;1.15;0.55;;;6.50;99.90;;;;;;5086285;28;20225;-82
2022/11/21 10:10:20;;;;;;;0.30;0.30;;;6.50;99.90;;;;;;5080703;28;20308;-81
2022/11/21 10:12:59;;;;;;;0.68;0.47;;;6.50;99.90;;;;;;5080432;28;20314;-81
2022/11/21 10:15:37;;;;;;;0.30;0.10;;;6.60;99.90;;;;;;5081887;28;20204;-81
2022/11/21 10:18:35;;;;;;;0.43;0.40;;;6.90;99.90;;;;;;5078599;28;20677;-81
2022/11/21 10:21:13;;;;;;;0.40;0.40;;;6.70;99.90;;;;;;5078848;28;20206;-80
2022/11/21 10:23:57;;;;;;;0.85;0.85;;;6.80;99.90;;;;;;5088587;28;20281;-81
2022/11/21 10:26:35;;;;;;;0.40;0.20;;;6.80;99.90;;;;;;5081252;28;20302;-81
2022/11/21 10:29:10;;;;;;;1.70;0.35;;;6.90;99.90;;;;;;5085629;28;20201;-81
2022/11/21 10:31:39;;;;;;;0.50;0.47;;;6.80;99.90;;;;;;5085440;28;20230;-81
2022/11/21 10:34:12;;;;;;;0.95;0.50;;;6.80;99.90;;;;;;5071991;28;20195;-80
2022/11/21 10:36:41;;;;;;;0.77;0.30;;;6.80;99.90;;;;;;5070870;28;20919;-81
2022/11/21 10:39:18;;;;;;;0.40;0.30;;;6.70;99.90;;;;;;5071136;28;20220;-81
2022/11/21 10:41:51;;;;;;;0.30;0.20;;;6.70;99.90;;;;;;5076604;28;20247;-81
2022/11/21 10:47:15;;;;;;;0.45;0.30;;;7.00;99.90;;;;;;5088663;28;20227;-80
2022/11/21 10:49:43;;;;;;;0.30;0.22;;;7.40;99.90;;;;;;5077705;28;20666;-80
2022/11/21 10:52:13;;;;;;;4.43;0.63;;;7.30;99.90;;;;;;5081278;28;20216;-81
2022/11/21 10:55:03;;;;;;;0.30;0.20;;;7.30;99.90;;;;;;5073873;28;20648;-81
2022/11/21 10:57:36;;;;;;;0.40;0.30;;;7.20;99.90;;;;;;5075521;28;20720;-80
2022/11/21 11:00:18;;;;;;;0.77;0.77;;;7.20;99.90;;;;;;5081106;28;20723;-81
2022/11/21 11:03:05;;;;;;;0.40;0.30;;;7.30;99.90;;;;;;5074972;28;20626;-81
2022/11/21 11:05:35;;;;;;;1.43;0.63;;;7.50;99.90;;;;;;5081577;28;20631;-81
2022/11/21 11:08:07;;;;;;;1.13;1.03;;;7.80;99.90;;;;;;5082995;28;20767;-80
2022/11/21 11:10:36;;;;;;;0.70;0.70;;;7.90;99.90;;;;;;5089044;28;20727;-81
2022/11/21 11:16:02;;;;;;;0.40;0.40;;;7.90;99.90;;;;;;5084784;28;20621;-81
2022/11/21 11:18:30;;;;;;;0.30;0.20;;;7.90;99.90;;;;;;5088052;28;20700;-81
2022/11/21 11:21:11;;;;;;;0.50;0.30;;;8.00;99.90;;;;;;5087406;28;20625;-81
2022/11/21 11:23:38;;;;;;;0.50;0.40;;;8.10;99.90;;;;;;5088145;28;21138;-81
2022/11/21 11:26:20;;;;;;;0.63;0.63;;;7.90;99.90;;;;;;5069788;28;20628;-81
2022/11/21 11:28:47;;;;;;;0.60;0.40;;;7.90;99.80;;;;;;5082842;28;20728;-80
2022/11/21 11:31:15;;;;;;;0.40;0.30;;;7.80;99.90;;;;;;5079225;28;21423;-80
2022/11/21 11:33:51;;;;;;;0.40;0.40;;;8.00;99.90;;;;;;5084320;28;20629;-80
2022/11/21 11:36:31;;;;;;;0.53;0.50;;;8.00;99.90;;;;;;5080288;28;21423;-79
2022/11/21 11:38:59;;;;;;;0.50;0.30;;;8.00;99.90;;;;;;5076624;28;20793;-80
2022/11/21 11:47:41;;;;;;;1.23;0.50;;;7.60;99.90;;;;;;5082167;28;20683;-80
2022/11/21 11:50:13;;;;;;;0.43;0.40;;;8.00;99.20;;;;;;5068783;28;20725;-80
2022/11/21 11:52:50;;;;;;;0.30;0.30;;;8.00;99.90;;;;;;5080238;28;20640;-80
2022/11/21 11:55:21;;;;;;;0.40;0.30;;;8.10;99.40;;;;;;5079654;28;21137;-79
2022/11/21 11:57:53;;;;;;;1.70;0.63;;;8.20;99.90;;;;;;5076019;28;20710;-80
2022/11/21 12:00:29;;;;;;;0.33;0.33;;;8.20;99.90;;;;;;5073195;28;20671;-79
2022/11/21 12:03:03;;;;;;;0.40;0.30;;;8.00;98.80;;;;;;5084862;28;20734;-79
2022/11/21 12:05:31;;;;;;;0.40;0.33;;;8.00;99.80;;;;;;5075416;28;20714;-79
2022/11/21 12:08:06;;;;;;;0.53;0.43;;;8.10;99.20;;;;;;5080856;28;20718;-79
2022/11/21 12:12:05;;;;;;;0.60;0.37;;;7.90;98.90;;;;;;5084830;28;20627;-79
2022/11/21 12:13:29;;;;;;;0.60;0.60;;;7.70;99.20;;;;;;5068281;28;21055;-79
2022/11/21 12:15:59;;;;;;;0.40;0.30;;;7.90;99.90;;;;;;5086843;28;20751;-79
2022/11/21 12:18:34;;;;;;;0.40;0.30;;;7.80;99.90;;;;;;5085571;28;21198;-79
2022/11/21 12:21:08;;;;;;;0.40;0.20;;;7.70;98.80;;;;;;5079701;28;21209;-80
2022/11/21 12:23:40;;;;;;;0.30;0.20;;;7.70;99.00;;;;;;5086772;28;21223;-79
2022/11/21 12:26:21;;;;;;;0.40;0.33;;;7.70;98.80;;;;;;5086590;28;20635;-79
2022/11/21 12:29:07;;;;;;;0.50;0.30;;;7.80;99.10;;;;;;5071497;28;21083;-79
2022/11/21 12:31:46;;;;;;;0.40;0.30;;;7.90;99.40;;;;;;5074478;28;20629;-79
2022/11/21 12:34:27;;;;;;;0.40;0.40;;;7.90;99.30;;;;;;5075595;28;20720;-79
2022/11/21 12:37:04;;;;;;;0.37;0.37;;;7.90;99.20;;;;;;5082654;28;20661;-79
2022/11/21 12:40:00;;;;;;;0.80;0.50;;;7.90;99.10;;;;;;5068352;28;20732;-80
2022/11/21 12:42:49;;;;;;;0.53;0.40;;;8.00;99.20;;;;;;5076525;28;20620;-80
2022/11/21 12:45:31;;;;;;;0.40;0.30;;;8.00;99.00;;;;;;5074327;28;21183;-79
2022/11/21 12:54:52;;;;;;;0.57;0.50;;;8.20;99.80;;;;;;5072369;28;20621;-81
2022/11/21 12:57:26;;;;;;;1.07;0.50;;;8.00;99.40;;;;;;5070196;28;20632;-79
2022/11/21 13:00:04;;;;;;;2.30;0.50;;;8.00;99.90;;;;;;5069142;28;20731;-79
2022/11/21 13:02:39;;;;;;;1.53;0.50;;;8.10;99.30;;;;;;5078891;28;20198;-79
2022/11/21 13:05:10;;;;;;;0.47;0.43;;;8.10;99.70;;;;;;5071480;28;20619;-79
2022/11/21 13:07:38;;;;;;;0.40;0.30;;;8.30;99.90;;;;;;5075093;28;21246;-79
2022/11/21 13:10:13;;;;;;;1.80;0.50;;;8.10;99.90;;;;;;5067292;28;21003;-79
2022/11/21 13:12:47;;;;;;;0.40;0.30;;;8.10;99.50;;;;;;5083338;28;20703;-79
2022/11/21 13:15:19;;;;;;;1.63;0.73;;;8.30;99.10;;;;;;5075331;28;21161;-81
2022/11/21 13:17:52;;;;;;;0.97;0.40;;;8.30;99.20;;;;;;5076395;28;20624;-78
2022/11/21 13:20:28;;;;;;;0.50;0.50;;;8.70;97.20;;;;;;5070933;28;20620;-79
2022/11/21 13:22:57;;;;;;;0.30;0.20;;;8.90;96.90;;;;;;5074809;28;20628;-79
2022/11/21 13:25:40;;;;;;;0.40;0.40;;;8.80;95.90;;;;;;5070335;28;20669;-79
2022/11/21 13:28:32;;;;;;;0.50;0.30;;;8.80;96.70;;;;;;5078892;28;20682;-79
2022/11/21 13:31:00;;;;;;;0.50;0.50;;;8.70;96.20;;;;;;5071350;28;20623;-79
2022/11/21 13:33:47;;;;;;;1.23;0.83;;;8.70;95.70;;;;;;5070661;28;21171;-79
2022/11/21 13:36:33;;;;;;;0.43;0.43;;;8.70;96.40;;;;;;5081335;28;20630;-79
2022/11/21 13:39:27;;;;;;;0.50;0.40;;;8.70;96.10;;;;;;5067419;28;20727;-79
2022/11/21 13:45:18;;;;;;;0.40;0.40;;;8.70;96.40;;;;;;5077505;28;20617;-79